LPPTLPMA

Guest
Details From LPPT - Lisboa
To LPMA - Madeira
Flight Number -
Tags decoded
Created
Modified
Stats Distance 524 nm / 971 km
Max Altitude 0 ft / 0 m
Waypoints 5
Social Downloads 20
Likes 0
Share VATSIM

Download

Looking for another format? Having issues loading an existing format? Contact us
Advertisement - Login to hide

Notes

Requested: LPPT GANSU UN975 NARTA UZ14 LIDRO LPMA Unmatched points: UZ14

Route

LPPT GANSU UN975 NARTA LIDRO LPMA

ID Type Via Altitude Latitude Longitude Leg Dist Tot Dist Heading (true) Name
O LPPT APT - 0 ft / 0 m 38.77856˚ -9.13515˚ - 0 nm - Lisboa
GANSU FIX - 0 ft / 0 m 38.00000˚ -9.81750˚ 56 nm 56 nm 215° / 214° -
NARTA FIX UN975 (AWY-HI) 0 ft / 0 m 36.05639˚ -12.55806˚ 175 nm 232 nm 229° / 228° -
LIDRO FIX - 0 ft / 0 m 33.66750˚ -15.94972˚ 220 nm 452 nm 230° / 228° -
O LPMA APT - 0 ft / 0 m 32.69770˚ -16.77445˚ 71 nm 524 nm 216° / 215° Madeira

Altitude Profile

Advertisement - Login to hide

Weather


0- 5 10 15 20 25 30 35+ Temperature / ° C

Clouds and Precipitation
Forecast for 2017-12-12 06:00 UTC. Updated an hour ago

Ground ~20,000 ft ~40,000 ft Winds

LPPT

Details ICAO LPPT (LIS)
Name Lisboa
Region Portugal
Timezone Europe/Lisbon (UTC+0.0)
Stats Elevation 374 ft / 114 m (AMSL)
Location 38.778559° -9.135146°
Runways 2
Magnetic Variation 2.365° W

METAR

LPPT 120630Z 33004KT 9999 FEW030 07/04 Q1018

Decode

TAF

TAF LPPT 120500Z 1206/1312 35008KT 9999 FEW030 BECMG 1218/1221 32005KT CAVOK BECMG 1303/1306 VRB03KT 9999 BKN035 PROB30 1303/1309 5000 DZ BR BKN008

Decode

Departure Runways

ID Width Length Bearing (true) Bearing (mag) Surface Threshold Offset Overrun Length
03 148 ft / 45 m 12,518 ft / 3,815 m 22.70° 25.07° Asphalt 296 ft / 90 m 0 ft / 0 m
17 148 ft / 45 m 7,922 ft / 2,415 m 168.38° 170.75° Asphalt 0 ft / 0 m 0 ft / 0 m
21 148 ft / 45 m 12,518 ft / 3,815 m 202.72° 205.09° Asphalt 1,969 ft / 600 m 0 ft / 0 m
35 148 ft / 45 m 7,922 ft / 2,415 m 348.38° 350.75° Asphalt 492 ft / 150 m 0 ft / 0 m

LPMA

Details ICAO LPMA (FNC)
Name Madeira
Region Portugal
Timezone Atlantic/Madeira (UTC+0.0)
Stats Elevation 192 ft / 59 m (AMSL)
Location 32.697704° -16.774449°
Runways 1
Magnetic Variation 4.983° W

METAR

LPMA 120630Z 01014G25KT 330V040 9999 -SHRA FEW014 FEW016TCU 16/10 Q1021

Decode

TAF

TAF LPMA 120500Z 1206/1306 01018G30KT 9999 SCT015 TEMPO 1206/1306 01015KT SCT012 FEW018TCU PROB30 TEMPO 1206/1306 01025G35KT

Decode

Destination Runways

ID Width Length Bearing (true) Bearing (mag) Surface Threshold Offset Overrun Length
05 141 ft / 43 m 8,683 ft / 2,647 m 42.98° 47.96° Asphalt 472 ft / 144 m 0 ft / 0 m
23 141 ft / 43 m 8,683 ft / 2,647 m 222.99° 227.97° Asphalt 466 ft / 142 m 0 ft / 0 m

Popular Alternatives